Home > Products > Valid Products > TAF

000
FTUS43 KILX 092336
TAFBMI
TAF
KBMI 092336Z 1000/1024 31014G22KT P6SM VCSH OVC025
      TEMPO 1000/1002 4SM -SN
     FM100500 31012G20KT P6SM SKC
     FM101300 31012KT P6SM SKC
     FM101700 30012KT P6SM BKN250=



000
FTUS43 KILX 092336
TAFPIA
TAF
KPIA 092336Z 1000/1024 31011G20KT P6SM VCSH OVC025
     FM100300 31010G17KT P6SM SKC
     FM101300 31008KT P6SM SKC
     FM101600 30008KT P6SM BKN250=



000
FTUS43 KILX 092336
TAFSPI
TAF
KSPI 092336Z 1000/1024 31011G20KT P6SM VCSH OVC025
     FM100300 31010G18KT P6SM SKC
     FM101200 30008KT P6SM SKC
     FM101600 29009KT P6SM BKN200=



000
FTUS43 KILX 092336
TAFCMI
TAF
KCMI 092336Z 1000/1024 31013G22KT P6SM VCSH OVC025
      TEMPO 1000/1003 3SM -SN
     FM100700 31012G20KT P6SM SKC
     FM101300 30012KT P6SM SKC
     FM101800 29012KT P6SM BKN250=



000
FTUS43 KILX 092336
TAFDEC
TAF
KDEC 092336Z 1000/1024 31012G21KT P6SM VCSH OVC025
      TEMPO 1000/1002 4SM -SN
     FM100500 31011G19KT P6SM SKC
     FM101200 30010KT P6SM SKC
     FM101700 29010KT P6SM BKN250=



000
FTUS43 KILX 092109 AAA
TAFCMI
TAF AMD
KCMI 092109Z 0921/1018 31015G23KT 6SM -SN OVC025
     FM100000 31015KT P6SM VCSH OVC025
     FM100300 31011KT P6SM BKN025=



000
FTUS43 KILX 092108 AAA
TAFDEC
TAF AMD
KDEC 092108Z 0921/1018 31014G22KT 6SM -SN BR OVC015
     FM092300 31014KT P6SM VCSH BKN025
     FM100200 31011KT P6SM BKN025=



000
FTUS43 KILX 092105 AAA
TAFBMI
TAF AMD
KBMI 092105Z 0921/1018 31016G24KT 3SM -SN BR BKN015
      TEMPO 0921/0922 1SM -SN BR
     FM092300 31016KT P6SM VCSH BKN015
     FM100200 31011KT P6SM BKN025=



000
FTUS43 KILX 092105 AAA
TAFBMI
TAF AMD
KBMI 092105Z 0921/1018 31016G24KT 3SM -SN BR BKN015
      TEMPO 0921/0922 1SM -SN BR
     FM092300 31016KT P6SM VCSH BKN015
     FM100200 31011KT P6SM BKN025=



000
FTUS43 KILX 091730
TAFBMI
TAF
KBMI 091730Z 0918/1018 32016G24KT 4SM -SN BR BKN015
      TEMPO 0918/0919 2SM -SN BR
     FM092000 32016G24KT P6SM VCSH BKN025
     FM092300 31013KT P6SM BKN025=



000
FTUS43 KILX 091730
TAFDEC
TAF
KDEC 091730Z 0918/1018 31014G22KT 4SM -SN BR OVC025
      TEMPO 0918/0920 2SM -SN BR BKN015
     FM092000 31014G22KT P6SM VCSH OVC025
     FM092300 31011KT P6SM BKN025=



000
FTUS43 KILX 091730
TAFCMI
TAF
KCMI 091730Z 0918/1018 31015G23KT 4SM -SN OVC025
      TEMPO 0918/0920 2SM -SN BR BKN015
     FM092200 31015KT P6SM VCSH OVC025
     FM100300 31011KT P6SM BKN025=



000
FTUS43 KILX 091730
TAFSPI
TAF
KSPI 091730Z 0918/1018 31014G22KT 6SM -SN BR OVC025
      TEMPO 0918/0920 3SM -SN BR
     FM092000 31014G22KT P6SM VCSH OVC025
     FM092300 31011KT P6SM BKN025=



000
FTUS43 KILX 091730
TAFPIA
TAF
KPIA 091730Z 0918/1018 31014G22KT P6SM VCSH OVC025
     FM092300 31011KT P6SM BKN025=



000
FTUS43 KILX 091730
TAFPIA
TAF
KPIA 091730Z 0918/1018 31014G22KT P6SM VCSH OVC025
     FM092300 31011KT P6SM BKN025=



000
FTUS43 KILX 091730
TAFSPI
TAF
KSPI 091730Z 0918/1018 31014G22KT 6SM -SN BR OVC025
      TEMPO 0918/0920 3SM -SN BR
     FM092000 31014G22KT P6SM VCSH OVC025
     FM092300 31011KT P6SM BKN025=



000
FTUS43 KILX 091730
TAFCMI
TAF
KCMI 091730Z 0918/1018 31015G23KT 4SM -SN OVC025
      TEMPO 0918/0920 2SM -SN BR BKN015
     FM092200 31015KT P6SM VCSH OVC025
     FM100300 31011KT P6SM BKN025=



000
FTUS43 KILX 091730
TAFDEC
TAF
KDEC 091730Z 0918/1018 31014G22KT 4SM -SN BR OVC025
      TEMPO 0918/0920 2SM -SN BR BKN015
     FM092000 31014G22KT P6SM VCSH OVC025
     FM092300 31011KT P6SM BKN025=



000
FTUS43 KILX 091730
TAFBMI
TAF
KBMI 091730Z 0918/1018 32016G24KT 4SM -SN BR BKN015
      TEMPO 0918/0919 2SM -SN BR
     FM092000 32016G24KT P6SM VCSH BKN025
     FM092300 31013KT P6SM BKN025=



000
FTUS43 KILX 091618 AAA
TAFCMI
TAF AMD
KCMI 091618Z 0916/1012 30015KT 3SM -SN BR OVC015
      TEMPO 0916/0917 1SM -SN BR
     FM091800 30015G22KT 5SM -SN OVC025
     FM100300 30015KT P6SM BKN025=



000
FTUS43 KILX 091617 AAB
TAFDEC
TAF AMD
KDEC 091617Z 0916/1012 31014G22KT 2SM -SN BR OVC025
     FM091700 31014G22KT 6SM -SN BR BKN025
     FM100200 31014KT P6SM BKN025=



000
FTUS43 KILX 091614 AAA
TAFPIA
TAF AMD
KPIA 091614Z 0916/1012 31015G22KT P6SM VCSH OVC025
     FM100100 31014KT P6SM BKN025=



000
FTUS43 KILX 091614 AAA
TAFPIA
TAF AMD
KPIA 091614Z 0916/1012 31015G22KT P6SM VCSH OVC025
     FM100100 31014KT P6SM BKN025=



000
FTUS43 KILX 091524 AAB
TAFSPI
TAF AMD
KSPI 091524Z 0915/1012 32014G22KT 3SM -SN BR OVC025
     FM091800 31014G22KT 6SM -SN BR OVC025
     FM100000 31014KT P6SM BKN025=



000
FTUS43 KILX 091522 AAA
TAFBMI
TAF AMD
KBMI 091522Z 0915/1012 31014KT 2SM -SN BR OVC015
     FM091600 31014G22KT 4SM -SN BR OVC015
     FM091800 31014G22KT 6SM -SN BR BKN025
     FM100200 31015KT P6SM BKN025=



000
FTUS43 KILX 091411 AAA
TAFDEC
TAF AMD
KDEC 091411Z 0914/1012 31014G20KT 4SM -SHSN BR BKN020
      TEMPO 0914/0916 2SM -SHSN BR OVC015
     FM091600 31015G22KT 5SM -SHSN OVC025
     FM100200 31015KT P6SM BKN025=



000
FTUS43 KILX 091409 AAA
TAFSPI
TAF AMD
KSPI 091409Z 0914/1012 31014G20KT 4SM -SHSN BR OVC020
      TEMPO 0914/0916 2SM -SHSN BR
     FM091600 31016G24KT 6SM -SHSN OVC025
     FM100000 31015KT P6SM BKN025=



000
FTUS43 KILX 091409 AAA
TAFSPI
TAF AMD
KSPI 091409Z 0914/1012 31014G20KT 4SM -SHSN BR OVC020
      TEMPO 0914/0916 2SM -SHSN BR
     FM091600 31016G24KT 6SM -SHSN OVC025
     FM100000 31015KT P6SM BKN025=



000
FTUS43 KILX 091131
TAFCMI
TAF
KCMI 091131Z 0912/1012 30015KT 4SM -SHSN BR OVC015
      TEMPO 0912/0916 2SM -SHSN BR
     FM091700 30015G22KT 5SM -SN OVC025
     FM100300 30015KT P6SM BKN025=



000
FTUS43 KILX 091131
TAFBMI
TAF
KBMI 091131Z 0912/1012 30014KT 4SM -SHSN BR OVC015
      TEMPO 0912/0916 2SM -SHSN BR OVC008
     FM091600 31016G24KT 6SM -SHSN OVC020
     FM100200 31015KT P6SM BKN025=



000
FTUS43 KILX 091131
TAFSPI
TAF
KSPI 091131Z 0912/1012 31014G20KT 4SM -SHSN BR OVC020
     FM091500 31016G24KT 6SM -SHSN OVC025
     FM100000 31015KT P6SM BKN025=



000
FTUS43 KILX 091131
TAFPIA
TAF
KPIA 091131Z 0912/1012 32010G18KT 4SM -SHSN BR OVC020
      TEMPO 0912/0915 2SM -SHSN BR
     FM091600 31015G22KT 6SM -SHSN OVC025
     FM100100 31014KT P6SM BKN025=



000
FTUS43 KILX 091131
TAFDEC
TAF
KDEC 091131Z 0912/1012 31014G20KT 4SM -SHSN BR OVC020
     FM091600 31015G22KT 5SM -SHSN OVC025
     FM100200 31015KT P6SM BKN025=



000
FTUS43 KILX 091131
TAFSPI
TAF
KSPI 091131Z 0912/1012 31014G20KT 4SM -SHSN BR OVC020
     FM091500 31016G24KT 6SM -SHSN OVC025
     FM100000 31015KT P6SM BKN025=



000
FTUS43 KILX 091131
TAFDEC
TAF
KDEC 091131Z 0912/1012 31014G20KT 4SM -SHSN BR OVC020
     FM091600 31015G22KT 5SM -SHSN OVC025
     FM100200 31015KT P6SM BKN025=



000
FTUS43 KILX 091131
TAFPIA
TAF
KPIA 091131Z 0912/1012 32010G18KT 4SM -SHSN BR OVC020
      TEMPO 0912/0915 2SM -SHSN BR
     FM091600 31015G22KT 6SM -SHSN OVC025
     FM100100 31014KT P6SM BKN025=



000
FTUS43 KILX 091131
TAFCMI
TAF
KCMI 091131Z 0912/1012 30015KT 4SM -SHSN BR OVC015
      TEMPO 0912/0916 2SM -SHSN BR
     FM091700 30015G22KT 5SM -SN OVC025
     FM100300 30015KT P6SM BKN025=



000
FTUS43 KILX 091131
TAFBMI
TAF
KBMI 091131Z 0912/1012 30014KT 4SM -SHSN BR OVC015
      TEMPO 0912/0916 2SM -SHSN BR OVC008
     FM091600 31016G24KT 6SM -SHSN OVC020
     FM100200 31015KT P6SM BKN025=



000
FTUS43 KILX 090527
TAFBMI
TAF
KBMI 090527Z 0906/1006 30015KT 5SM -SN BR OVC015
     FM091500 31014G22KT 6SM -SN OVC015
     FM100000 31011KT P6SM BKN025=



000
FTUS43 KILX 090527
TAFDEC
TAF
KDEC 090527Z 0906/1006 31010G18KT 3SM -SN BR OVC018
     FM091600 31014G20KT 6SM -SN OVC025
     FM100000 31013KT P6SM BKN025=



000
FTUS43 KILX 090527
TAFCMI
TAF
KCMI 090527Z 0906/1006 29015KT 3SM -SN BR OVC015
     FM091600 30014G20KT 6SM -SN OVC025
     FM100000 31014KT P6SM BKN025=



000
FTUS43 KILX 090527
TAFPIA
TAF
KPIA 090527Z 0906/1006 31010G18KT 5SM -SN BR OVC020
     FM091400 31014G20KT 6SM -SN OVC025
     FM100000 31011KT P6SM BKN025=



000
FTUS43 KILX 090527
TAFSPI
TAF
KSPI 090527Z 0906/1006 31012KT 4SM -SN BR OVC020
     FM091500 31014G20KT 6SM -SN OVC025
     FM100000 31014KT P6SM BKN025=



000
FTUS43 KILX 082331
TAFPIA
TAF
KPIA 082331Z 0900/0924 31012KT 4SM -SN BR OVC020
     FM091500 31014G20KT P6SM OVC025=



000
FTUS43 KILX 082331
TAFPIA
TAF
KPIA 082331Z 0900/0924 31012KT 4SM -SN BR OVC020
     FM091500 31014G20KT P6SM OVC025=



000
FTUS43 KILX 082331
TAFCMI
TAF
KCMI 082331Z 0900/0924 29012KT 3SM -SN BR OVC020
     FM091600 30014G20KT 5SM -SN BR OVC025=



000
FTUS43 KILX 082331
TAFDEC
TAF
KDEC 082331Z 0900/0924 31012KT 3SM -SN BR OVC020
     FM091600 31014G20KT 5SM -SN BR OVC025=



000
FTUS43 KILX 082331
TAFBMI
TAF
KBMI 082331Z 0900/0924 30013KT 4SM -SN BR OVC015
     FM091600 31014G22KT 5SM -SN BR OVC015=



000
FTUS43 KILX 082331
TAFSPI
TAF
KSPI 082331Z 0900/0924 31012KT 4SM -SN BR OVC020
     FM091600 31014G20KT P6SM OVC025=



000
FTUS43 KILX 082331
TAFBMI
TAF
KBMI 082331Z 0900/0924 30013KT 4SM -SN BR OVC015
     FM091600 31014G22KT 5SM -SN BR OVC015=



000
FTUS43 KILX 082331
TAFSPI
TAF
KSPI 082331Z 0900/0924 31012KT 4SM -SN BR OVC020
     FM091600 31014G20KT P6SM OVC025=



000
FTUS43 KILX 082331
TAFCMI
TAF
KCMI 082331Z 0900/0924 29012KT 3SM -SN BR OVC020
     FM091600 30014G20KT 5SM -SN BR OVC025=



000
FTUS43 KILX 082331
TAFDEC
TAF
KDEC 082331Z 0900/0924 31012KT 3SM -SN BR OVC020
     FM091600 31014G20KT 5SM -SN BR OVC025=



000
FTUS43 KILX 082146 AAB
TAFCMI
TAF AMD
KCMI 082146Z 0822/0918 30014G24KT 2SM -SN BR OVC015
     FM082300 30013G20KT 3SM -SN BR BKN025
     FM090100 31013KT P6SM VCSH OVC015
     FM090900 31012KT 5SM -SN BR OVC015
     FM091600 31014G20KT 5SM -SN BR OVC025=



000
FTUS43 KILX 082146 AAB
TAFCMI
TAF AMD
KCMI 082146Z 0822/0918 30014G24KT 2SM -SN BR OVC015
     FM082300 30013G20KT 3SM -SN BR BKN025
     FM090100 31013KT P6SM VCSH OVC015
     FM090900 31012KT 5SM -SN BR OVC015
     FM091600 31014G20KT 5SM -SN BR OVC025=



000
FTUS43 KILX 082104 AAA
TAFSPI
TAF AMD
KSPI 082104Z 0821/0918 30014G20KT 3SM -SN BR OVC020
      TEMPO 0821/0822 1SM -SN BR
     FM082300 31013KT P6SM VCSH OVC015
     FM090700 31012KT 5SM -SN BR OVC015
     FM091600 31014G20KT P6SM OVC025=



000
FTUS43 KILX 082104 AAA
TAFSPI
TAF AMD
KSPI 082104Z 0821/0918 30014G20KT 3SM -SN BR OVC020
      TEMPO 0821/0822 1SM -SN BR
     FM082300 31013KT P6SM VCSH OVC015
     FM090700 31012KT 5SM -SN BR OVC015
     FM091600 31014G20KT P6SM OVC025=



000
FTUS43 KILX 082103 AAB
TAFDEC
TAF AMD
KDEC 082103Z 0821/0918 29014G22KT 3SM -SN BR OVC025
      TEMPO 0821/0822 1SM -SN BR
     FM082300 30013KT P6SM VCSH OVC015
     FM090800 31012KT 5SM -SN BR OVC015
     FM091600 31014G20KT 5SM -SN BR OVC025=



000
FTUS43 KILX 082101 AAA
TAFCMI
TAF AMD
KCMI 082101Z 0821/0918 30014G24KT 3SM -SN BR OVC025
      TEMPO 0821/0822 1/4SM SN FG BKN015
     FM090100 31013KT P6SM VCSH OVC015
     FM090900 31012KT 5SM -SN BR OVC015
     FM091600 31014G20KT 5SM -SN BR OVC025=



000
FTUS43 KILX 081833 AAA
TAFDEC
TAF AMD
KDEC 081833Z 0819/0918 30014G22KT 1SM -SN BR OVC030
     FM082000 30014G22KT 5SM -SN BR OVC025
     FM082300 31013KT P6SM VCSH OVC015
     FM090800 31012KT 5SM -SN BR OVC015
     FM091600 31014G20KT 5SM -SN BR OVC025=



000
FTUS43 KILX 081833 AAA
TAFDEC
TAF AMD
KDEC 081833Z 0819/0918 30014G22KT 1SM -SN BR OVC030
     FM082000 30014G22KT 5SM -SN BR OVC025
     FM082300 31013KT P6SM VCSH OVC015
     FM090800 31012KT 5SM -SN BR OVC015
     FM091600 31014G20KT 5SM -SN BR OVC025=



000
FTUS43 KILX 081747
TAFBMI
TAF
KBMI 081747Z 0818/0918 30018G22KT 3SM -SN BR OVC015
      TEMPO 0818/0820 1SM -SN BR
     FM082000 31014G22KT 5SM -SN BR OVC015
     FM082300 31014KT P6SM VCSH OVC015
     FM090500 31013KT 5SM -SN BR OVC015
     FM091600 31014G22KT 5SM -SN BR OVC015=



000
FTUS43 KILX 081747
TAFSPI
TAF
KSPI 081747Z 0818/0918 30014G22KT 1SM -SN BR OVC015
     FM081900 30014G22KT 5SM -SN BR OVC025
     FM082300 31013KT P6SM VCSH OVC015
     FM090700 31012KT 5SM -SN BR OVC015
     FM091600 31014G20KT P6SM OVC025=



000
FTUS43 KILX 081747
TAFCMI
TAF
KCMI 081747Z 0818/0918 30014G24KT 5SM -SN BR OVC025
      TEMPO 0819/0821 3SM -SN BR BKN015
     FM082300 31013KT P6SM VCSH OVC015
     FM090900 31012KT 5SM -SN BR OVC015
     FM091600 31014G20KT 5SM -SN BR OVC025=



000
FTUS43 KILX 081747
TAFDEC
TAF
KDEC 081747Z 0818/0918 30014G22KT 6SM -SN BR SCT025 OVC035
      TEMPO 0819/0820 3SM -SN BR BKN025
     FM082300 31013KT P6SM VCSH OVC015
     FM090800 31012KT 5SM -SN BR OVC015
     FM091600 31014G20KT 5SM -SN BR OVC025=



000
FTUS43 KILX 081747
TAFPIA
TAF
KPIA 081747Z 0818/0918 31014G20KT 3SM -SN BR OVC025
     FM081900 31014G20KT 5SM -SN BR OVC025
     FM082200 31013KT P6SM VCSH OVC015
     FM090500 31012KT 5SM -SN BR OVC015
     FM091500 31014G20KT P6SM OVC025=



000
FTUS43 KILX 081618 AAB
TAFCMI
TAF AMD
KCMI 081618Z 0816/0912 30015G25KT P6SM VCSH OVC030
     FM081700 30015G25KT 5SM -SN BR OVC025
     FM082000 30015G25KT P6SM VCSH OVC020
     FM090200 31015KT P6SM VCSH OVC015=



000
FTUS43 KILX 081616 AAC
TAFDEC
TAF AMD
KDEC 081616Z 0816/0912 31014G22KT 2SM -SN BR OVC015
     FM081700 31014G22KT 6SM -SN BR OVC025
      TEMPO 0818/0820 3SM -SN BR
     FM082000 30015G25KT P6SM VCSH OVC025
     FM090200 31015KT P6SM VCSH OVC015=



000
FTUS43 KILX 081613 AAA
TAFSPI
TAF AMD
KSPI 081613Z 0816/0912 30014G22KT 6SM -SN BR OVC025
      TEMPO 0817/0819 3SM -SN BR BKN015
     FM081900 30016G25KT P6SM VCSH OVC025
     FM090000 31016KT P6SM VCSH OVC015=



000
FTUS43 KILX 081611 AAB
TAFBMI
TAF AMD
KBMI 081611Z 0816/0912 30018G22KT 6SM -SN BR SCT015 BKN050
      TEMPO 0818/0820 3SM -SN BR BKN015
     FM082000 30016G26KT P6SM VCSH OVC015
     FM090000 31016KT P6SM VCSH OVC015=



000
FTUS43 KILX 081608 AAA
TAFPIA
TAF AMD
KPIA 081608Z 0816/0912 31014G20KT 5SM -SN BR OVC025
      TEMPO 0817/0819 3SM -SN BR BKN015
     FM081900 31015G25KT P6SM VCSH OVC025
     FM090000 31015KT P6SM VCSH OVC015=



000
FTUS43 KILX 081504 AAA
TAFCMI
TAF AMD
KCMI 081504Z 0815/0912 30014G20KT P6SM VCSH OVC015
      TEMPO 0816/0817 2SM -SHSN BR
     FM081800 30015G25KT P6SM VCSH OVC020
     FM090200 31015KT P6SM VCSH OVC015=



000
FTUS43 KILX 081503 AAB
TAFDEC
TAF AMD
KDEC 081503Z 0815/0912 31016G25KT P6SM VCSH OVC035
      TEMPO 0815/0816 2SM -SHSN BR OVC015
     FM081800 30015G25KT P6SM VCSH OVC020
     FM090200 31015KT P6SM VCSH OVC015=



000
FTUS43 KILX 081503 AAB
TAFDEC
TAF AMD
KDEC 081503Z 0815/0912 31016G25KT P6SM VCSH OVC035
      TEMPO 0815/0816 2SM -SHSN BR OVC015
     FM081800 30015G25KT P6SM VCSH OVC020
     FM090200 31015KT P6SM VCSH OVC015=



000
FTUS43 KILX 081501 AAA
TAFBMI
TAF AMD
KBMI 081501Z 0815/0912 30018G22KT P6SM VCSH OVC015
      TEMPO 0815/0816 1SM -SHSN BR OVC001
     FM081800 30016G26KT P6SM VCSH OVC015
     FM090000 31016KT P6SM VCSH OVC015=



000
FTUS43 KILX 081501 AAA
TAFBMI
TAF AMD
KBMI 081501Z 0815/0912 30018G22KT P6SM VCSH OVC015
      TEMPO 0815/0816 1SM -SHSN BR OVC001
     FM081800 30016G26KT P6SM VCSH OVC015
     FM090000 31016KT P6SM VCSH OVC015=



000
FTUS43 KILX 081349 AAA
TAFDEC
TAF AMD
KDEC 081349Z 0814/0912 31016G25KT P6SM VCSH OVC015
      TEMPO 0814/0816 2SM -SHSN BR OVC008
     FM081800 30015G25KT P6SM VCSH OVC020
     FM090200 31015KT P6SM VCSH OVC015=



000
FTUS43 KILX 081120
TAFBMI
TAF
KBMI 081120Z 0812/0912 31014G20KT P6SM VCSH OVC015
      TEMPO 0813/0816 2SM -SHSN BR OVC004
     FM081800 30016G26KT P6SM VCSH OVC015
     FM090000 31016KT P6SM VCSH OVC015=



000
FTUS43 KILX 081120
TAFDEC
TAF
KDEC 081120Z 0812/0912 29014G20KT P6SM VCSH OVC020
      TEMPO 0812/0816 2SM -SHSN BR OVC008
     FM081800 30015G25KT P6SM VCSH OVC020
     FM090200 31015KT P6SM VCSH OVC015=



000
FTUS43 KILX 081120
TAFCMI
TAF
KCMI 081120Z 0812/0912 27008KT P6SM VCSH OVC030
     FM081300 29014G20KT P6SM VCSH OVC020
      TEMPO 0813/0817 2SM -SHSN BR OVC008
     FM081800 30015G25KT P6SM VCSH OVC020
     FM090200 31015KT P6SM VCSH OVC015=



000
FTUS43 KILX 081120
TAFSPI
TAF
KSPI 081120Z 0812/0912 30014G20KT P6SM VCSH OVC020
      TEMPO 0812/0815 2SM -SHSN BR OVC008
     FM081800 30016G25KT P6SM VCSH OVC020
     FM090000 31016KT P6SM VCSH OVC015=



000
FTUS43 KILX 081120
TAFPIA
TAF
KPIA 081120Z 0812/0912 31014G20KT P6SM VCSH OVC025
      TEMPO 0813/0815 2SM -SHSN BR OVC015
     FM081800 31015G25KT P6SM VCSH OVC020
     FM090000 31015KT P6SM VCSH OVC015=



000
FTUS43 KILX 081120
TAFPIA
TAF
KPIA 081120Z 0812/0912 31014G20KT P6SM VCSH OVC025
      TEMPO 0813/0815 2SM -SHSN BR OVC015
     FM081800 31015G25KT P6SM VCSH OVC020
     FM090000 31015KT P6SM VCSH OVC015=



000
FTUS43 KILX 081120
TAFCMI
TAF
KCMI 081120Z 0812/0912 27008KT P6SM VCSH OVC030
     FM081300 29014G20KT P6SM VCSH OVC020
      TEMPO 0813/0817 2SM -SHSN BR OVC008
     FM081800 30015G25KT P6SM VCSH OVC020
     FM090200 31015KT P6SM VCSH OVC015=



000
FTUS43 KILX 081120
TAFDEC
TAF
KDEC 081120Z 0812/0912 29014G20KT P6SM VCSH OVC020
      TEMPO 0812/0816 2SM -SHSN BR OVC008
     FM081800 30015G25KT P6SM VCSH OVC020
     FM090200 31015KT P6SM VCSH OVC015=



000
FTUS43 KILX 081120
TAFSPI
TAF
KSPI 081120Z 0812/0912 30014G20KT P6SM VCSH OVC020
      TEMPO 0812/0815 2SM -SHSN BR OVC008
     FM081800 30016G25KT P6SM VCSH OVC020
     FM090000 31016KT P6SM VCSH OVC015=



000
FTUS43 KILX 081120
TAFBMI
TAF
KBMI 081120Z 0812/0912 31014G20KT P6SM VCSH OVC015
      TEMPO 0813/0816 2SM -SHSN BR OVC004
     FM081800 30016G26KT P6SM VCSH OVC015
     FM090000 31016KT P6SM VCSH OVC015=



000
FTUS43 KILX 080958 AAA
TAFCMI
TAF AMD
KCMI 080958Z 0810/0906 25009KT P6SM SCT050 BKN080
     FM081100 27012KT P6SM VCSH OVC020
      TEMPO 0811/0814 3SM -SHSN BR OVC008
     FM081400 30016G24KT 3SM -SN BR OVC012
     FM090000 31014KT P6SM VCSH OVC015=



000
FTUS43 KILX 080956 AAA
TAFDEC
TAF AMD
KDEC 080956Z 0810/0906 29012KT P6SM VCSH OVC020
      TEMPO 0811/0813 3SM -SHSN BR OVC010
     FM081400 30015G23KT 4SM -SN BR OVC015
     FM090000 31013KT P6SM VCSH OVC015=



000
FTUS43 KILX 080955 AAA
TAFSPI
TAF AMD
KSPI 080955Z 0810/0906 28012KT P6SM VCSH OVC015
      TEMPO 0810/0812 3SM -SHSN BR OVC009
     FM081400 30015G23KT 4SM -SN BR OVC015
     FM090000 31012KT P6SM VCSH OVC015=



000
FTUS43 KILX 080953 AAA
TAFBMI
TAF AMD
KBMI 080953Z 0810/0906 30012KT P6SM VCSH OVC015
      TEMPO 0810/0812 3SM -SHSN BR OVC008
     FM081400 30016G24KT 3SM -SN BR OVC012
     FM090000 31014KT P6SM VCSH OVC015=



000
FTUS43 KILX 080520
TAFBMI
TAF
KBMI 080520Z 0806/0906 27007KT P6SM SCT025 BKN050
     FM080800 28012KT P6SM VCSH OVC020
     FM081400 30016G24KT 3SM -SN BR OVC012
     FM090000 31014KT P6SM VCSH OVC015=



000
FTUS43 KILX 080520
TAFSPI
TAF
KSPI 080520Z 0806/0906 27009KT P6SM SCT025 BKN050
     FM080800 29012KT P6SM VCSH OVC020
     FM081400 30015G23KT 4SM -SN BR OVC015
     FM090000 31012KT P6SM VCSH OVC015=



000
FTUS43 KILX 080520
TAFDEC
TAF
KDEC 080520Z 0806/0906 27010KT P6SM SCT025 BKN050
     FM080900 29012KT P6SM VCSH OVC020
     FM081400 30015G23KT 4SM -SN BR OVC015
     FM090000 31013KT P6SM VCSH OVC015=



000
FTUS43 KILX 080520
TAFPIA
TAF
KPIA 080520Z 0806/0906 29007KT P6SM SCT025 BKN050
     FM080700 29012KT P6SM VCSH OVC020
     FM081400 30014G22KT 3SM -SN BR OVC015
     FM090000 31012KT P6SM VCSH OVC015=



000
FTUS43 KILX 080520
TAFCMI
TAF
KCMI 080520Z 0806/0906 27011KT P6SM SCT025 BKN050
     FM081000 28012KT P6SM VCSH OVC020
     FM081400 30016G24KT 3SM -SN BR OVC012
     FM090000 31014KT P6SM VCSH OVC015=



000
FTUS43 KILX 080520
TAFSPI
TAF
KSPI 080520Z 0806/0906 27009KT P6SM SCT025 BKN050
     FM080800 29012KT P6SM VCSH OVC020
     FM081400 30015G23KT 4SM -SN BR OVC015
     FM090000 31012KT P6SM VCSH OVC015=



000
FTUS43 KILX 080520
TAFCMI
TAF
KCMI 080520Z 0806/0906 27011KT P6SM SCT025 BKN050
     FM081000 28012KT P6SM VCSH OVC020
     FM081400 30016G24KT 3SM -SN BR OVC012
     FM090000 31014KT P6SM VCSH OVC015=



000
FTUS43 KILX 080520
TAFDEC
TAF
KDEC 080520Z 0806/0906 27010KT P6SM SCT025 BKN050
     FM080900 29012KT P6SM VCSH OVC020
     FM081400 30015G23KT 4SM -SN BR OVC015
     FM090000 31013KT P6SM VCSH OVC015=



000
FTUS43 KILX 080520
TAFBMI
TAF
KBMI 080520Z 0806/0906 27007KT P6SM SCT025 BKN050
     FM080800 28012KT P6SM VCSH OVC020
     FM081400 30016G24KT 3SM -SN BR OVC012
     FM090000 31014KT P6SM VCSH OVC015=



000
FTUS43 KILX 080520
TAFPIA
TAF
KPIA 080520Z 0806/0906 29007KT P6SM SCT025 BKN050
     FM080700 29012KT P6SM VCSH OVC020
     FM081400 30014G22KT 3SM -SN BR OVC015
     FM090000 31012KT P6SM VCSH OVC015=



000
FTUS43 KILX 072325
TAFCMI
TAF
KCMI 072325Z 0800/0824 27011KT P6SM SCT025 BKN050
     FM081000 28012KT P6SM VCSH OVC020
     FM081400 29016G24KT 3SM -SN BR OVC012=



000
FTUS43 KILX 072325
TAFBMI
TAF
KBMI 072325Z 0800/0824 27011KT P6SM SCT025 BKN050
     FM080800 28012KT P6SM VCSH OVC020
     FM081400 29016G24KT 3SM -SN BR OVC012=



000
FTUS43 KILX 072325
TAFDEC
TAF
KDEC 072325Z 0800/0824 27010KT P6SM SCT025 BKN050
     FM080900 29012KT P6SM VCSH OVC020
     FM081400 30015G23KT 4SM -SN BR OVC015=



000
FTUS43 KILX 072325
TAFSPI
TAF
KSPI 072325Z 0800/0824 27010KT P6SM SCT025 BKN050
     FM080800 29012KT P6SM VCSH OVC020
     FM081400 30015G23KT 4SM -SN BR OVC015=



000
FTUS43 KILX 072325
TAFPIA
TAF
KPIA 072325Z 0800/0824 29007KT P6SM SCT025 BKN050
     FM080700 29012KT P6SM VCSH OVC020
     FM081400 29014G22KT 3SM -SN BR OVC015=



000
FTUS43 KILX 072325
TAFBMI
TAF
KBMI 072325Z 0800/0824 27011KT P6SM SCT025 BKN050
     FM080800 28012KT P6SM VCSH OVC020
     FM081400 29016G24KT 3SM -SN BR OVC012=



000
FTUS43 KILX 072325
TAFCMI
TAF
KCMI 072325Z 0800/0824 27011KT P6SM SCT025 BKN050
     FM081000 28012KT P6SM VCSH OVC020
     FM081400 29016G24KT 3SM -SN BR OVC012=



000
FTUS43 KILX 072325
TAFSPI
TAF
KSPI 072325Z 0800/0824 27010KT P6SM SCT025 BKN050
     FM080800 29012KT P6SM VCSH OVC020
     FM081400 30015G23KT 4SM -SN BR OVC015=



000
FTUS43 KILX 072325
TAFDEC
TAF
KDEC 072325Z 0800/0824 27010KT P6SM SCT025 BKN050
     FM080900 29012KT P6SM VCSH OVC020
     FM081400 30015G23KT 4SM -SN BR OVC015=



000
FTUS43 KILX 072325
TAFPIA
TAF
KPIA 072325Z 0800/0824 29007KT P6SM SCT025 BKN050
     FM080700 29012KT P6SM VCSH OVC020
     FM081400 29014G22KT 3SM -SN BR OVC015=



000
FTUS43 KILX 072008 AAA
TAFBMI
TAF AMD
KBMI 072008Z 0720/0818 24018G27KT P6SM BKN120
     FM080200 27011KT P6SM SCT025 BKN045
     FM080900 28012KT 5SM -SN BR OVC020
     FM081400 29016G24KT 3SM -SN BR OVC012=



000
FTUS43 KILX 072008 AAA
TAFBMI
TAF AMD
KBMI 072008Z 0720/0818 24018G27KT P6SM BKN120
     FM080200 27011KT P6SM SCT025 BKN045
     FM080900 28012KT 5SM -SN BR OVC020
     FM081400 29016G24KT 3SM -SN BR OVC012=



000
FTUS43 KILX 072008 AAB
TAFSPI
TAF AMD
KSPI 072008Z 0720/0818 25018G25KT P6SM BKN120
     FM080000 27010KT P6SM SCT025 BKN050
     FM080900 29012KT 6SM -SN BR OVC020
     FM081400 29015G23KT 4SM -SN BR OVC015=



000
FTUS43 KILX 072008 AAB
TAFSPI
TAF AMD
KSPI 072008Z 0720/0818 25018G25KT P6SM BKN120
     FM080000 27010KT P6SM SCT025 BKN050
     FM080900 29012KT 6SM -SN BR OVC020
     FM081400 29015G23KT 4SM -SN BR OVC015=



000
FTUS43 KILX 072007 AAA
TAFDEC
TAF AMD
KDEC 072007Z 0720/0818 24018G27KT P6SM BKN120
     FM072300 26013G20KT P6SM SCT040 BKN100
     FM080300 27010KT P6SM SCT025 BKN050
     FM081000 28012KT P6SM VCSH OVC020
     FM081500 29015G23KT 4SM -SN BR OVC015=



000
FTUS43 KILX 072007 AAA
TAFCMI
TAF AMD
KCMI 072007Z 0720/0818 24020G28KT P6SM BKN120
     FM080000 25014G22KT P6SM SCT040 BKN120
     FM080300 27010KT P6SM SCT025 BKN045
     FM081000 28013KT P6SM VCSH OVC020
     FM081500 29015G24KT 4SM -SN BR OVC015=



000
FTUS43 KILX 072007 AAA
TAFDEC
TAF AMD
KDEC 072007Z 0720/0818 24018G27KT P6SM BKN120
     FM072300 26013G20KT P6SM SCT040 BKN100
     FM080300 27010KT P6SM SCT025 BKN050
     FM081000 28012KT P6SM VCSH OVC020
     FM081500 29015G23KT 4SM -SN BR OVC015=



000
FTUS43 KILX 072007 AAA
TAFCMI
TAF AMD
KCMI 072007Z 0720/0818 24020G28KT P6SM BKN120
     FM080000 25014G22KT P6SM SCT040 BKN120
     FM080300 27010KT P6SM SCT025 BKN045
     FM081000 28013KT P6SM VCSH OVC020
     FM081500 29015G24KT 4SM -SN BR OVC015=



000
FTUS43 KILX 072006 AAA
TAFSPI
TAF AMD
KSPI 072006Z 0720/0818 25018G25KT P6SM SCT100 BKN200
     FM080000 27010KT P6SM SCT025 BKN050
     FM080900 29012KT 6SM -SN BR OVC020
     FM081400 29015G23KT 4SM -SN BR OVC015=



000
FTUS43 KILX 071744
TAFDEC
TAF
KDEC 071744Z 0718/0818 24018G27KT P6SM SCT110 BKN200
     FM072000 26012G20KT P6SM SCT040 BKN120
     FM080300 27010KT P6SM SCT025 BKN050
     FM081000 28012KT P6SM VCSH OVC020
     FM081500 29015G23KT 4SM -SN BR OVC015=



000
FTUS43 KILX 071744
TAFPIA
TAF
KPIA 071744Z 0718/0818 26013G21KT P6SM SCT100 BKN150
     FM080100 27007KT P6SM SCT025 BKN050
     FM080700 28010KT 5SM -SN BR OVC020
     FM081300 29014G22KT 3SM -SN BR OVC015=



000
FTUS43 KILX 071744
TAFBMI
TAF
KBMI 071744Z 0718/0818 24018G26KT P6SM SCT100 BKN200
     FM080200 27011KT P6SM SCT025 BKN045
     FM080900 28012KT 5SM -SN BR OVC020
     FM081400 29016G24KT 3SM -SN BR OVC012=



000
FTUS43 KILX 071744
TAFPIA
TAF
KPIA 071744Z 0718/0818 26013G21KT P6SM SCT100 BKN150
     FM080100 27007KT P6SM SCT025 BKN050
     FM080700 28010KT 5SM -SN BR OVC020
     FM081300 29014G22KT 3SM -SN BR OVC015=



000
FTUS43 KILX 071744
TAFSPI
TAF
KSPI 071744Z 0718/0818 25016G24KT P6SM SCT100 BKN200
     FM080000 27010KT P6SM SCT025 BKN050
     FM080900 29012KT 6SM -SN BR OVC020
     FM081400 29015G23KT 4SM -SN BR OVC015=



000
FTUS43 KILX 071744
TAFCMI
TAF
KCMI 071744Z 0718/0818 23017G26KT P6SM SCT110 BKN200
     FM080000 25014G22KT P6SM SCT040 BKN120
     FM080300 27010KT P6SM SCT025 BKN045
     FM081000 28013KT P6SM VCSH OVC020
     FM081500 29015G24KT 4SM -SN BR OVC015=



000
FTUS43 KILX 071744
TAFDEC
TAF
KDEC 071744Z 0718/0818 24018G27KT P6SM SCT110 BKN200
     FM072000 26012G20KT P6SM SCT040 BKN120
     FM080300 27010KT P6SM SCT025 BKN050
     FM081000 28012KT P6SM VCSH OVC020
     FM081500 29015G23KT 4SM -SN BR OVC015=



000
FTUS43 KILX 071744
TAFCMI
TAF
KCMI 071744Z 0718/0818 23017G26KT P6SM SCT110 BKN200
     FM080000 25014G22KT P6SM SCT040 BKN120
     FM080300 27010KT P6SM SCT025 BKN045
     FM081000 28013KT P6SM VCSH OVC020
     FM081500 29015G24KT 4SM -SN BR OVC015=



000
FTUS43 KILX 071744
TAFBMI
TAF
KBMI 071744Z 0718/0818 24018G26KT P6SM SCT100 BKN200
     FM080200 27011KT P6SM SCT025 BKN045
     FM080900 28012KT 5SM -SN BR OVC020
     FM081400 29016G24KT 3SM -SN BR OVC012=



000
FTUS43 KILX 071744
TAFSPI
TAF
KSPI 071744Z 0718/0818 25016G24KT P6SM SCT100 BKN200
     FM080000 27010KT P6SM SCT025 BKN050
     FM080900 29012KT 6SM -SN BR OVC020
     FM081400 29015G23KT 4SM -SN BR OVC015=



000
FTUS43 KILX 071351 AAA
TAFSPI
TAF AMD
KSPI 071351Z 0714/0812 20012KT P6SM BKN120
     FM071500 22015G24KT P6SM BKN120
     FM071800 26012G20KT P6SM BKN120
     FM080000 27010KT P6SM SCT020 OVC040
     FM080900 29012KT 4SM -SN BR OVC020=



000
FTUS43 KILX 071351 AAA
TAFSPI
TAF AMD
KSPI 071351Z 0714/0812 20012KT P6SM BKN120
     FM071500 22015G24KT P6SM BKN120
     FM071800 26012G20KT P6SM BKN120
     FM080000 27010KT P6SM SCT020 OVC040
     FM080900 29012KT 4SM -SN BR OVC020=



000
FTUS43 KILX 071350 AAA
TAFPIA
TAF AMD
KPIA 071350Z 0714/0812 21010KT P6SM BKN120
     FM071500 22013G22KT P6SM BKN120
     FM071700 27012G20KT P6SM BKN120
     FM080000 27007KT P6SM SCT020 OVC035
     FM080700 28010KT 3SM -SN BR OVC020=



000
FTUS43 KILX 071124
TAFBMI
TAF
KBMI 071124Z 0712/0812 21014KT P6SM BKN120
     FM071400 22016G25KT P6SM BKN120
     FM071800 26015G25KT P6SM BKN120
     FM080000 27011KT P6SM SCT020 OVC035
     FM080900 28012KT 3SM -SN BR OVC020=



000
FTUS43 KILX 071124
TAFCMI
TAF
KCMI 071124Z 0712/0812 20012KT P6SM BKN120
     FM071500 22016G25KT P6SM BKN120
     FM072100 25014G22KT P6SM SCT040 BKN120
     FM080300 27010KT P6SM SCT020 OVC040
     FM081000 28012KT P6SM VCSH OVC020=



000
FTUS43 KILX 071124
TAFPIA
TAF
KPIA 071124Z 0712/0812 21010KT P6SM BKN120
     FM071400 23013G22KT P6SM BKN120
     FM071700 27012G20KT P6SM BKN120
     FM080000 27007KT P6SM SCT020 OVC035
     FM080700 28010KT 3SM -SN BR OVC020=



000
FTUS43 KILX 071124
TAFDEC
TAF
KDEC 071124Z 0712/0812 21012KT P6SM BKN120
     FM071500 22015G25KT P6SM BKN120
     FM072000 26012G20KT P6SM SCT040 BKN120
     FM080300 27010KT P6SM SCT020 OVC040
     FM081000 28012KT P6SM VCSH OVC020=



000
FTUS43 KILX 071124
TAFSPI
TAF
KSPI 071124Z 0712/0812 20012KT P6SM BKN120
     FM071400 22015G24KT P6SM BKN120
     FM071800 26012G20KT P6SM BKN120
     FM080000 27010KT P6SM SCT020 OVC040
     FM080900 29012KT 4SM -SN BR OVC020=



000
FTUS43 KILX 070529
TAFSPI
TAF
KSPI 070529Z 0706/0806 20005KT P6SM SCT250
     FM070900 22012KT P6SM BKN120
     FM071400 25014G24KT P6SM SCT040 BKN100
     FM080000 27010KT P6SM SCT020 OVC040=



000
FTUS43 KILX 070529
TAFBMI
TAF
KBMI 070529Z 0706/0806 21009KT P6SM SCT250
     FM070900 22014KT P6SM BKN120
     FM071600 25015G25KT P6SM SCT040 BKN100
     FM080000 27010KT P6SM SCT020 OVC035=



000
FTUS43 KILX 070529
TAFPIA
TAF
KPIA 070529Z 0706/0806 20007KT P6SM SCT250
     FM070800 22010KT P6SM BKN120
     FM071400 25012G22KT P6SM SCT040 BKN100
     FM080000 27007KT P6SM SCT020 OVC035=



000
FTUS43 KILX 070529
TAFDEC
TAF
KDEC 070529Z 0706/0806 21008KT P6SM SCT250
     FM071000 22012KT P6SM BKN120
     FM071600 25015G25KT P6SM SCT040 BKN100
     FM080000 27009KT P6SM SCT020 OVC040=



000
FTUS43 KILX 070529
TAFCMI
TAF
KCMI 070529Z 0706/0806 20008KT P6SM SCT250
     FM071000 21012KT P6SM BKN120
     FM071700 24015G25KT P6SM SCT040 BKN100
     FM080000 26010KT P6SM SCT020 OVC040=



000
FTUS43 KILX 070529
TAFSPI
TAF
KSPI 070529Z 0706/0806 20005KT P6SM SCT250
     FM070900 22012KT P6SM BKN120
     FM071400 25014G24KT P6SM SCT040 BKN100
     FM080000 27010KT P6SM SCT020 OVC040=



000
FTUS43 KILX 070529
TAFBMI
TAF
KBMI 070529Z 0706/0806 21009KT P6SM SCT250
     FM070900 22014KT P6SM BKN120
     FM071600 25015G25KT P6SM SCT040 BKN100
     FM080000 27010KT P6SM SCT020 OVC035=



000
FTUS43 KILX 070529
TAFPIA
TAF
KPIA 070529Z 0706/0806 20007KT P6SM SCT250
     FM070800 22010KT P6SM BKN120
     FM071400 25012G22KT P6SM SCT040 BKN100
     FM080000 27007KT P6SM SCT020 OVC035=



000
FTUS43 KILX 070529
TAFDEC
TAF
KDEC 070529Z 0706/0806 21008KT P6SM SCT250
     FM071000 22012KT P6SM BKN120
     FM071600 25015G25KT P6SM SCT040 BKN100
     FM080000 27009KT P6SM SCT020 OVC040=



000
FTUS43 KILX 070529
TAFCMI
TAF
KCMI 070529Z 0706/0806 20008KT P6SM SCT250
     FM071000 21012KT P6SM BKN120
     FM071700 24015G25KT P6SM SCT040 BKN100
     FM080000 26010KT P6SM SCT020 OVC040=



    US Dept of Commerce
    National Oceanic and Atmospheric Administration
    National Weather Service
    1325 East West Highway
    Silver Spring, MD 20910
    Page Author: NWS Internet Services Team
Disclaimer
Information Quality
Credits
Glossary
Privacy Policy
Freedom of Information Act (FOIA)
About Us
Career Opportunities